TimeEST,TemperatureF,Dew PointF,Humidity,Sea Level PressureIn,VisibilityMPH,Wind Direction,Wind SpeedMPH,Gust SpeedMPH,PrecipitationIn,Events,Conditions,WindDirDegrees,DateUTC
12:15 AM,-2.9,-9.0,75,30.19,10.0,WSW,8.1,-,N/A,,Clear,240,2014-01-29 05:15:00
12:35 AM,0.3,-7.8,69,30.18,10.0,WSW,9.2,-,N/A,,Clear,240,2014-01-29 05:35:00
12:55 AM,-0.2,-8.3,69,30.17,10.0,WSW,9.2,-,N/A,,Clear,240,2014-01-29 05:55:00
1:15 AM,-0.8,-8.1,71,30.17,10.0,SW,9.2,-,N/A,,Clear,230,2014-01-29 06:15:00
1:35 AM,-5.1,-13.2,68,30.17,10.0,SSW,8.1,-,N/A,,Clear,200,2014-01-29 06:35:00
1:55 AM,-5.8,-12.3,74,30.16,10.0,SSW,8.1,-,N/A,,Clear,200,2014-01-29 06:55:00
2:15 AM,-6.9,-13.4,73,30.15,10.0,SSW,6.9,-,N/A,,Clear,200,2014-01-29 07:15:00
2:35 AM,-6.0,-11.7,76,30.15,10.0,South,9.2,-,N/A,,Clear,190,2014-01-29 07:35:00
2:55 AM,-4.9,-10.5,77,30.15,10.0,SSW,11.5,-,N/A,,Clear,200,2014-01-29 07:55:00
3:15 AM,-4.9,-11.2,74,30.15,10.0,SW,9.2,-,N/A,,Clear,220,2014-01-29 08:15:00
3:35 AM,-2.9,-9.2,74,30.15,10.0,SW,10.4,-,N/A,,Clear,220,2014-01-29 08:35:00
3:54 AM,-2.4,-8.9,74,30.15,10.0,SW,9.2,-,N/A,,Clear,230,2014-01-29 08:54:00
4:15 AM,-1.5,-8.5,72,30.14,10.0,SW,9.2,-,N/A,,Clear,230,2014-01-29 09:15:00
4:35 AM,-1.7,-8.5,73,30.14,10.0,SW,9.2,-,N/A,,Clear,220,2014-01-29 09:35:00
4:54 AM,-2.2,-8.7,74,30.14,10.0,SW,10.4,-,N/A,,Clear,220,2014-01-29 09:54:00
5:15 AM,-2.2,-8.9,73,30.14,10.0,SW,9.2,-,N/A,,Clear,220,2014-01-29 10:15:00
5:35 AM,-1.8,-8.1,75,30.14,10.0,SW,9.2,-,N/A,,Clear,220,2014-01-29 10:35:00
5:55 AM,-1.3,-7.8,74,30.13,10.0,SW,6.9,-,N/A,,Clear,230,2014-01-29 10:55:00
6:15 AM,-0.9,-7.8,73,30.13,10.0,SW,9.2,-,N/A,,Clear,220,2014-01-29 11:15:00
6:35 AM,-0.9,-7.8,73,30.13,10.0,SW,6.9,-,N/A,,Clear,230,2014-01-29 11:35:00
6:55 AM,-0.6,-7.8,72,30.13,10.0,SW,9.2,-,N/A,,Clear,220,2014-01-29 11:55:00
7:15 AM,-2.6,-9.4,73,30.13,10.0,SSW,10.4,-,N/A,,Clear,210,2014-01-29 12:15:00
7:35 AM,-2.4,-8.7,75,30.13,10.0,SW,10.4,-,N/A,,Clear,220,2014-01-29 12:35:00
7:55 AM,-1.7,-8.3,73,30.14,10.0,SW,9.2,-,N/A,,Clear,220,2014-01-29 12:55:00
8:15 AM,-2.2,-8.9,73,30.14,10.0,SW,9.2,-,N/A,,Clear,220,2014-01-29 13:15:00
8:34 AM,-1.7,-8.5,73,30.14,10.0,SSW,10.4,-,N/A,,Clear,210,2014-01-29 13:34:00
8:55 AM,-0.8,-8.0,72,30.15,10.0,SW,8.1,-,N/A,,Clear,220,2014-01-29 13:55:00
9:15 AM,-0.0,-7.6,70,30.15,10.0,SW,9.2,-,N/A,,Clear,220,2014-01-29 14:15:00
9:34 AM,2.3,-6.2,68,30.15,10.0,SW,6.9,-,N/A,,Clear,230,2014-01-29 14:34:00
9:55 AM,7.5,-2.7,63,30.15,10.0,WSW,10.4,16.1,N/A,,Clear,240,2014-01-29 14:55:00
10:14 AM,7.7,-2.7,62,30.16,10.0,WSW,10.4,19.6,N/A,,Clear,240,2014-01-29 15:14:00
10:35 AM,8.6,-2.6,61,30.16,10.0,WSW,9.2,-,N/A,,Clear,240,2014-01-29 15:35:00
10:55 AM,10.8,-1.7,57,30.17,10.0,WSW,10.4,21.9,N/A,,Clear,250,2014-01-29 15:55:00
11:14 AM,11.5,-1.3,57,30.17,10.0,West,13.8,23.0,N/A,,Clear,260,2014-01-29 16:14:00
11:35 AM,11.8,-1.7,55,30.17,7.0,West,13.8,23.0,N/A,,Clear,260,2014-01-29 16:35:00
11:55 AM,12.9,-1.5,53,30.17,10.0,West,13.8,21.9,N/A,,Clear,260,2014-01-29 16:55:00
12:15 PM,13.5,-2.0,50,30.17,10.0,WSW,16.1,21.9,N/A,,Clear,250,2014-01-29 17:15:00
12:35 PM,14.0,-1.8,49,30.16,10.0,WSW,15.0,23.0,N/A,,Clear,250,2014-01-29 17:35:00
12:55 PM,14.5,-2.0,48,30.15,10.0,West,12.7,16.1,N/A,,Clear,270,2014-01-29 17:55:00
1:15 PM,15.3,-1.8,47,30.14,10.0,WSW,11.5,-,N/A,,Clear,250,2014-01-29 18:15:00
1:35 PM,15.8,-2.2,45,30.14,10.0,WSW,10.4,18.4,N/A,,Clear,240,2014-01-29 18:35:00
1:55 PM,16.3,-0.6,47,30.15,10.0,WSW,15.0,21.9,N/A,,Clear,250,2014-01-29 18:55:00
2:15 PM,17.1,-2.0,43,30.14,10.0,West,12.7,23.0,N/A,,Clear,260,2014-01-29 19:15:00
2:35 PM,17.6,-2.0,42,30.13,10.0,WSW,12.7,18.4,N/A,,Clear,250,2014-01-29 19:35:00
2:55 PM,18.1,-2.9,39,30.13,10.0,West,15.0,21.9,N/A,,Clear,270,2014-01-29 19:55:00
3:15 PM,18.7,-2.9,39,30.14,10.0,WSW,6.9,-,N/A,,Clear,250,2014-01-29 20:15:00
3:35 PM,18.7,-3.5,38,30.14,10.0,WSW,9.2,16.1,N/A,,Clear,240,2014-01-29 20:35:00
3:55 PM,18.0,-2.9,40,30.14,10.0,SW,9.2,-,N/A,,Clear,220,2014-01-29 20:55:00
4:15 PM,18.3,-2.9,39,30.15,10.0,WSW,10.4,-,N/A,,Clear,240,2014-01-29 21:15:00
4:34 PM,18.3,-2.4,40,30.15,10.0,WSW,9.2,-,N/A,,Clear,240,2014-01-29 21:34:00
4:55 PM,18.1,-3.3,39,30.15,10.0,SW,10.4,18.4,N/A,,Clear,230,2014-01-29 21:55:00
5:15 PM,18.0,-3.6,38,30.14,10.0,SW,8.1,-,N/A,,Clear,230,2014-01-29 22:15:00
5:34 PM,17.4,-3.3,40,30.15,10.0,SW,8.1,-,N/A,,Clear,220,2014-01-29 22:34:00
5:55 PM,16.5,-2.7,43,30.15,10.0,SW,5.8,-,N/A,,Clear,230,2014-01-29 22:55:00
6:15 PM,14.0,-2.6,48,30.15,10.0,SSW,9.2,-,N/A,,Clear,200,2014-01-29 23:15:00
6:35 PM,12.2,-2.2,53,30.15,10.0,SW,6.9,-,N/A,,Clear,220,2014-01-29 23:35:00
6:55 PM,12.0,-2.2,53,30.15,10.0,SSW,6.9,-,N/A,,Clear,200,2014-01-29 23:55:00
7:15 PM,10.2,-2.2,57,30.14,10.0,South,8.1,-,N/A,,Clear,190,2014-01-30 00:15:00
7:35 PM,10.4,-1.5,59,30.13,10.0,South,9.2,-,N/A,,Clear,190,2014-01-30 00:35:00
7:55 PM,11.3,-0.4,59,30.13,10.0,South,10.4,-,N/A,,Clear,190,2014-01-30 00:55:00
8:15 PM,11.3,0.1,61,30.14,10.0,SSW,6.9,-,N/A,,Clear,210,2014-01-30 01:15:00
8:35 PM,11.5,0.7,62,30.14,10.0,Calm,Calm,-,N/A,,Clear,0,2014-01-30 01:35:00
8:55 PM,7.3,-1.5,67,30.13,10.0,South,6.9,-,N/A,,Clear,190,2014-01-30 01:55:00
9:14 PM,8.4,-0.2,68,30.12,10.0,South,8.1,-,N/A,,Clear,180,2014-01-30 02:14:00
9:35 PM,10.0,0.7,66,30.12,10.0,South,8.1,-,N/A,,Clear,180,2014-01-30 02:35:00
9:55 PM,9.7,0.3,66,30.12,10.0,South,8.1,-,N/A,,Clear,190,2014-01-30 02:55:00
10:14 PM,10.6,1.2,66,30.11,10.0,South,9.2,-,N/A,,Clear,180,2014-01-30 03:14:00
10:35 PM,10.4,0.9,65,30.10,10.0,South,8.1,-,N/A,,Clear,190,2014-01-30 03:35:00
10:55 PM,10.0,0.3,65,30.10,10.0,South,8.1,-,N/A,,Clear,190,2014-01-30 03:55:00
11:15 PM,10.9,1.2,65,30.10,10.0,SSW,3.5,-,N/A,,Clear,210,2014-01-30 04:15:00
11:35 PM,6.8,-1.8,68,30.10,10.0,South,5.8,-,N/A,,Clear,190,2014-01-30 04:35:00
11:55 PM,13.1,2.7,63,30.10,10.0,South,11.5,-,N/A,,Clear,190,2014-01-30 04:55:00